Terminal Aerodrome Forecast
Issued by NWS Wilmington, OH

Home | Current Version | Previous Version | Text Only | Print | Product List | Glossary On
Versions: 1 2 3 4 5 6 7 8 9 10 11 12
000
FTUS41 KILN 120500
TAFDAY
TAF
KDAY 120520Z 1206/1306 00000KT P6SM BKN250
     FM121500 21008KT P6SM SCT050 BKN100
     FM121900 24010KT P6SM VCSH BKN050
     FM130100 20008KT P6SM BKN100=

USA.gov is the U.S. government's official web portal to all federal, state and local government web resources and services.